sensor_id;sensor_type;location;lat;lon;timestamp;P1;durP1;ratioP1;P2;durP2;ratioP2
17345;SDS011;8790;53.590;10.002;2022-10-16T00:01:29;8.83;;;5.80;;
17345;SDS011;8790;53.590;10.002;2022-10-16T00:04:02;7.60;;;5.90;;
17345;SDS011;8790;53.590;10.002;2022-10-16T00:06:34;7.37;;;6.20;;
17345;SDS011;8790;53.590;10.002;2022-10-16T00:09:06;6.70;;;5.30;;
17345;SDS011;8790;53.590;10.002;2022-10-16T00:11:39;6.07;;;5.13;;
17345;SDS011;8790;53.590;10.002;2022-10-16T00:14:12;7.50;;;5.77;;
17345;SDS011;8790;53.590;10.002;2022-10-16T00:16:46;9.17;;;5.30;;
17345;SDS011;8790;53.590;10.002;2022-10-16T00:19:18;6.37;;;5.10;;
17345;SDS011;8790;53.590;10.002;2022-10-16T00:21:50;6.80;;;5.20;;
17345;SDS011;8790;53.590;10.002;2022-10-16T00:24:22;6.23;;;4.80;;
17345;SDS011;8790;53.590;10.002;2022-10-16T00:26:54;6.80;;;4.37;;
17345;SDS011;8790;53.590;10.002;2022-10-16T00:29:25;6.57;;;4.20;;
17345;SDS011;8790;53.590;10.002;2022-10-16T00:31:59;4.47;;;3.70;;
17345;SDS011;8790;53.590;10.002;2022-10-16T00:34:31;5.80;;;3.63;;
17345;SDS011;8790;53.590;10.002;2022-10-16T00:37:02;4.03;;;3.33;;
17345;SDS011;8790;53.590;10.002;2022-10-16T00:39:34;6.70;;;3.10;;
17345;SDS011;8790;53.590;10.002;2022-10-16T00:42:06;5.53;;;3.10;;
17345;SDS011;8790;53.590;10.002;2022-10-16T00:44:42;5.17;;;3.10;;
17345;SDS011;8790;53.590;10.002;2022-10-16T00:47:21;4.20;;;2.70;;
17345;SDS011;8790;53.590;10.002;2022-10-16T00:49:58;4.80;;;3.13;;
17345;SDS011;8790;53.590;10.002;2022-10-16T00:52:33;4.13;;;2.53;;
17345;SDS011;8790;53.590;10.002;2022-10-16T00:55:05;6.43;;;2.80;;
17345;SDS011;8790;53.590;10.002;2022-10-16T00:57:39;4.27;;;2.67;;
17345;SDS011;8790;53.590;10.002;2022-10-16T01:00:14;4.73;;;2.80;;
17345;SDS011;8790;53.590;10.002;2022-10-16T01:02:53;4.30;;;2.50;;
17345;SDS011;8790;53.590;10.002;2022-10-16T01:05:26;4.33;;;2.90;;
17345;SDS011;8790;53.590;10.002;2022-10-16T01:08:06;3.63;;;2.57;;
17345;SDS011;8790;53.590;10.002;2022-10-16T01:10:44;3.87;;;2.30;;
17345;SDS011;8790;53.590;10.002;2022-10-16T01:13:26;3.63;;;2.13;;
17345;SDS011;8790;53.590;10.002;2022-10-16T01:16:05;3.80;;;2.57;;
17345;SDS011;8790;53.590;10.002;2022-10-16T01:18:42;2.20;;;2.00;;
17345;SDS011;8790;53.590;10.002;2022-10-16T01:21:16;3.93;;;2.10;;
17345;SDS011;8790;53.590;10.002;2022-10-16T01:23:56;6.10;;;2.40;;
17345;SDS011;8790;53.590;10.002;2022-10-16T01:26:41;3.57;;;2.40;;
17345;SDS011;8790;53.590;10.002;2022-10-16T01:29:25;5.10;;;2.20;;
17345;SDS011;8790;53.590;10.002;2022-10-16T01:32:00;4.23;;;2.10;;
17345;SDS011;8790;53.590;10.002;2022-10-16T01:34:37;4.40;;;2.13;;
17345;SDS011;8790;53.590;10.002;2022-10-16T01:37:14;3.50;;;2.33;;
17345;SDS011;8790;53.590;10.002;2022-10-16T01:39:49;4.20;;;1.90;;
17345;SDS011;8790;53.590;10.002;2022-10-16T01:42:27;4.17;;;2.30;;
17345;SDS011;8790;53.590;10.002;2022-10-16T01:45:07;3.57;;;2.13;;
17345;SDS011;8790;53.590;10.002;2022-10-16T01:47:43;5.43;;;2.13;;
17345;SDS011;8790;53.590;10.002;2022-10-16T01:50:16;3.07;;;2.10;;
17345;SDS011;8790;53.590;10.002;2022-10-16T01:52:51;3.93;;;2.20;;
17345;SDS011;8790;53.590;10.002;2022-10-16T01:55:27;3.50;;;2.43;;
17345;SDS011;8790;53.590;10.002;2022-10-16T01:58:02;3.30;;;2.07;;
17345;SDS011;8790;53.590;10.002;2022-10-16T02:00:40;3.23;;;1.97;;
17345;SDS011;8790;53.590;10.002;2022-10-16T02:03:16;2.87;;;1.73;;
17345;SDS011;8790;53.590;10.002;2022-10-16T02:05:51;3.73;;;2.07;;
17345;SDS011;8790;53.590;10.002;2022-10-16T02:08:25;5.20;;;2.00;;
17345;SDS011;8790;53.590;10.002;2022-10-16T02:11:00;3.13;;;2.20;;
17345;SDS011;8790;53.590;10.002;2022-10-16T02:13:34;2.93;;;2.03;;
17345;SDS011;8790;53.590;10.002;2022-10-16T02:16:11;3.23;;;1.73;;
17345;SDS011;8790;53.590;10.002;2022-10-16T02:18:44;6.50;;;2.10;;
17345;SDS011;8790;53.590;10.002;2022-10-16T02:21:17;4.00;;;2.10;;
17345;SDS011;8790;53.590;10.002;2022-10-16T02:23:57;3.60;;;2.20;;
17345;SDS011;8790;53.590;10.002;2022-10-16T02:26:34;4.87;;;2.23;;
17345;SDS011;8790;53.590;10.002;2022-10-16T02:29:12;3.90;;;1.90;;
17345;SDS011;8790;53.590;10.002;2022-10-16T02:31:48;5.40;;;2.27;;
17345;SDS011;8790;53.590;10.002;2022-10-16T02:34:23;2.93;;;1.67;;
17345;SDS011;8790;53.590;10.002;2022-10-16T02:36:59;2.50;;;1.60;;
17345;SDS011;8790;53.590;10.002;2022-10-16T02:39:33;3.87;;;1.80;;
17345;SDS011;8790;53.590;10.002;2022-10-16T02:42:09;4.20;;;1.80;;
17345;SDS011;8790;53.590;10.002;2022-10-16T02:44:41;3.10;;;1.93;;
17345;SDS011;8790;53.590;10.002;2022-10-16T02:47:14;3.37;;;1.60;;
17345;SDS011;8790;53.590;10.002;2022-10-16T02:49:46;2.97;;;1.63;;
17345;SDS011;8790;53.590;10.002;2022-10-16T02:52:18;3.37;;;1.60;;
17345;SDS011;8790;53.590;10.002;2022-10-16T02:54:49;4.70;;;1.80;;
17345;SDS011;8790;53.590;10.002;2022-10-16T02:57:21;3.40;;;1.80;;
17345;SDS011;8790;53.590;10.002;2022-10-16T02:59:53;4.07;;;1.50;;
17345;SDS011;8790;53.590;10.002;2022-10-16T03:02:26;4.47;;;1.70;;
17345;SDS011;8790;53.590;10.002;2022-10-16T03:04:58;2.97;;;1.70;;
17345;SDS011;8790;53.590;10.002;2022-10-16T03:07:30;2.57;;;1.70;;
17345;SDS011;8790;53.590;10.002;2022-10-16T03:10:02;4.27;;;1.70;;
17345;SDS011;8790;53.590;10.002;2022-10-16T03:12:34;4.03;;;1.73;;
17345;SDS011;8790;53.590;10.002;2022-10-16T03:15:06;2.03;;;1.43;;
17345;SDS011;8790;53.590;10.002;2022-10-16T03:17:40;2.33;;;1.50;;
17345;SDS011;8790;53.590;10.002;2022-10-16T03:20:12;2.97;;;1.60;;
17345;SDS011;8790;53.590;10.002;2022-10-16T03:22:43;2.80;;;1.57;;
17345;SDS011;8790;53.590;10.002;2022-10-16T03:25:15;3.43;;;1.70;;
17345;SDS011;8790;53.590;10.002;2022-10-16T03:27:47;1.87;;;1.67;;
17345;SDS011;8790;53.590;10.002;2022-10-16T03:30:19;3.17;;;1.60;;
17345;SDS011;8790;53.590;10.002;2022-10-16T03:32:52;2.20;;;1.60;;
17345;SDS011;8790;53.590;10.002;2022-10-16T03:35:24;3.03;;;1.80;;
17345;SDS011;8790;53.590;10.002;2022-10-16T03:37:56;2.47;;;2.00;;
17345;SDS011;8790;53.590;10.002;2022-10-16T03:40:27;3.23;;;1.73;;
17345;SDS011;8790;53.590;10.002;2022-10-16T03:43:01;3.10;;;1.90;;
17345;SDS011;8790;53.590;10.002;2022-10-16T03:45:33;4.37;;;1.83;;
17345;SDS011;8790;53.590;10.002;2022-10-16T03:48:06;4.60;;;1.90;;
17345;SDS011;8790;53.590;10.002;2022-10-16T03:50:38;6.77;;;1.70;;
17345;SDS011;8790;53.590;10.002;2022-10-16T03:53:10;3.53;;;1.90;;
17345;SDS011;8790;53.590;10.002;2022-10-16T03:55:42;1.87;;;1.60;;
17345;SDS011;8790;53.590;10.002;2022-10-16T03:58:14;2.23;;;1.70;;
17345;SDS011;8790;53.590;10.002;2022-10-16T04:00:46;2.77;;;1.67;;
17345;SDS011;8790;53.590;10.002;2022-10-16T04:03:19;2.63;;;1.53;;
17345;SDS011;8790;53.590;10.002;2022-10-16T04:05:51;4.27;;;1.80;;
17345;SDS011;8790;53.590;10.002;2022-10-16T04:08:23;3.43;;;1.70;;
17345;SDS011;8790;53.590;10.002;2022-10-16T04:10:55;4.40;;;1.67;;
17345;SDS011;8790;53.590;10.002;2022-10-16T04:13:27;3.80;;;1.80;;
17345;SDS011;8790;53.590;10.002;2022-10-16T04:15:58;3.27;;;1.80;;
17345;SDS011;8790;53.590;10.002;2022-10-16T04:18:31;3.17;;;1.70;;
17345;SDS011;8790;53.590;10.002;2022-10-16T04:21:04;4.23;;;1.93;;
17345;SDS011;8790;53.590;10.002;2022-10-16T04:23:36;4.20;;;1.63;;
17345;SDS011;8790;53.590;10.002;2022-10-16T04:26:07;2.67;;;1.87;;
17345;SDS011;8790;53.590;10.002;2022-10-16T04:28:40;3.50;;;1.73;;
17345;SDS011;8790;53.590;10.002;2022-10-16T04:31:12;2.53;;;1.67;;
17345;SDS011;8790;53.590;10.002;2022-10-16T04:33:45;2.83;;;1.77;;
17345;SDS011;8790;53.590;10.002;2022-10-16T04:36:16;3.00;;;1.47;;
17345;SDS011;8790;53.590;10.002;2022-10-16T04:38:48;3.93;;;1.80;;
17345;SDS011;8790;53.590;10.002;2022-10-16T04:41:20;2.67;;;1.73;;
17345;SDS011;8790;53.590;10.002;2022-10-16T04:43:52;5.23;;;2.00;;
17345;SDS011;8790;53.590;10.002;2022-10-16T04:46:24;2.67;;;1.60;;
17345;SDS011;8790;53.590;10.002;2022-10-16T04:48:57;5.27;;;1.60;;
17345;SDS011;8790;53.590;10.002;2022-10-16T04:51:29;3.47;;;1.63;;
17345;SDS011;8790;53.590;10.002;2022-10-16T04:54:01;3.37;;;1.50;;
17345;SDS011;8790;53.590;10.002;2022-10-16T04:56:33;4.97;;;1.90;;
17345;SDS011;8790;53.590;10.002;2022-10-16T04:59:13;2.83;;;1.57;;
17345;SDS011;8790;53.590;10.002;2022-10-16T05:01:45;4.80;;;1.77;;
17345;SDS011;8790;53.590;10.002;2022-10-16T05:04:18;3.63;;;1.60;;
17345;SDS011;8790;53.590;10.002;2022-10-16T05:06:50;3.00;;;1.77;;
17345;SDS011;8790;53.590;10.002;2022-10-16T05:09:22;4.50;;;2.00;;
17345;SDS011;8790;53.590;10.002;2022-10-16T05:11:53;3.03;;;1.80;;
17345;SDS011;8790;53.590;10.002;2022-10-16T05:14:25;5.33;;;2.10;;
17345;SDS011;8790;53.590;10.002;2022-10-16T05:16:57;6.30;;;2.30;;
17345;SDS011;8790;53.590;10.002;2022-10-16T05:19:31;3.93;;;2.30;;
17345;SDS011;8790;53.590;10.002;2022-10-16T05:22:03;5.60;;;2.33;;
17345;SDS011;8790;53.590;10.002;2022-10-16T05:24:35;4.23;;;2.20;;
17345;SDS011;8790;53.590;10.002;2022-10-16T05:27:07;2.87;;;2.17;;
17345;SDS011;8790;53.590;10.002;2022-10-16T05:29:38;3.10;;;2.20;;
17345;SDS011;8790;53.590;10.002;2022-10-16T05:32:10;4.43;;;2.17;;
17345;SDS011;8790;53.590;10.002;2022-10-16T05:34:43;5.20;;;2.37;;
17345;SDS011;8790;53.590;10.002;2022-10-16T05:37:16;3.60;;;2.17;;
17345;SDS011;8790;53.590;10.002;2022-10-16T05:39:47;5.80;;;2.10;;
17345;SDS011;8790;53.590;10.002;2022-10-16T05:42:19;4.07;;;2.13;;
17345;SDS011;8790;53.590;10.002;2022-10-16T05:44:51;4.50;;;2.40;;
17345;SDS011;8790;53.590;10.002;2022-10-16T05:47:23;4.73;;;2.00;;
17345;SDS011;8790;53.590;10.002;2022-10-16T05:49:56;4.83;;;2.40;;
17345;SDS011;8790;53.590;10.002;2022-10-16T05:52:28;6.30;;;2.20;;
17345;SDS011;8790;53.590;10.002;2022-10-16T05:55:00;4.57;;;2.23;;
17345;SDS011;8790;53.590;10.002;2022-10-16T05:57:32;5.13;;;2.10;;
17345;SDS011;8790;53.590;10.002;2022-10-16T06:00:04;4.00;;;2.10;;
17345;SDS011;8790;53.590;10.002;2022-10-16T06:02:42;4.67;;;2.20;;
17345;SDS011;8790;53.590;10.002;2022-10-16T06:05:16;5.03;;;2.30;;
17345;SDS011;8790;53.590;10.002;2022-10-16T06:07:47;3.90;;;2.07;;
17345;SDS011;8790;53.590;10.002;2022-10-16T06:10:19;3.60;;;2.10;;
17345;SDS011;8790;53.590;10.002;2022-10-16T06:12:51;4.63;;;2.27;;
17345;SDS011;8790;53.590;10.002;2022-10-16T06:15:23;3.60;;;2.23;;
17345;SDS011;8790;53.590;10.002;2022-10-16T06:17:55;5.67;;;2.33;;
17345;SDS011;8790;53.590;10.002;2022-10-16T06:20:29;3.30;;;2.00;;
17345;SDS011;8790;53.590;10.002;2022-10-16T06:23:01;3.53;;;2.33;;
17345;SDS011;8790;53.590;10.002;2022-10-16T06:25:34;4.87;;;2.07;;
17345;SDS011;8790;53.590;10.002;2022-10-16T06:28:05;3.67;;;1.80;;
17345;SDS011;8790;53.590;10.002;2022-10-16T06:30:37;2.97;;;2.00;;
17345;SDS011;8790;53.590;10.002;2022-10-16T06:33:09;4.17;;;2.13;;
17345;SDS011;8790;53.590;10.002;2022-10-16T06:35:42;3.03;;;1.93;;
17345;SDS011;8790;53.590;10.002;2022-10-16T06:38:14;3.23;;;2.00;;
17345;SDS011;8790;53.590;10.002;2022-10-16T06:40:46;2.63;;;1.80;;
17345;SDS011;8790;53.590;10.002;2022-10-16T06:43:18;4.17;;;2.10;;
17345;SDS011;8790;53.590;10.002;2022-10-16T06:45:51;4.17;;;2.27;;
17345;SDS011;8790;53.590;10.002;2022-10-16T06:48:23;4.20;;;2.10;;
17345;SDS011;8790;53.590;10.002;2022-10-16T06:50:58;4.03;;;2.40;;
17345;SDS011;8790;53.590;10.002;2022-10-16T06:53:31;3.23;;;2.17;;
17345;SDS011;8790;53.590;10.002;2022-10-16T06:56:08;4.13;;;2.47;;
17345;SDS011;8790;53.590;10.002;2022-10-16T06:58:40;5.70;;;2.50;;
17345;SDS011;8790;53.590;10.002;2022-10-16T07:01:13;4.30;;;2.33;;
17345;SDS011;8790;53.590;10.002;2022-10-16T07:03:45;3.13;;;2.40;;
17345;SDS011;8790;53.590;10.002;2022-10-16T07:06:20;3.83;;;2.50;;
17345;SDS011;8790;53.590;10.002;2022-10-16T07:08:53;3.57;;;2.40;;
17345;SDS011;8790;53.590;10.002;2022-10-16T07:11:25;3.40;;;2.43;;
17345;SDS011;8790;53.590;10.002;2022-10-16T07:13:58;4.33;;;2.40;;
17345;SDS011;8790;53.590;10.002;2022-10-16T07:16:31;5.23;;;2.40;;
17345;SDS011;8790;53.590;10.002;2022-10-16T07:19:03;4.63;;;2.60;;
17345;SDS011;8790;53.590;10.002;2022-10-16T07:21:37;3.30;;;2.17;;
17345;SDS011;8790;53.590;10.002;2022-10-16T07:24:11;4.07;;;2.83;;
17345;SDS011;8790;53.590;10.002;2022-10-16T07:26:44;3.90;;;2.80;;
17345;SDS011;8790;53.590;10.002;2022-10-16T07:29:18;4.30;;;2.73;;
17345;SDS011;8790;53.590;10.002;2022-10-16T07:31:50;5.43;;;2.80;;
17345;SDS011;8790;53.590;10.002;2022-10-16T07:34:22;4.73;;;2.80;;
17345;SDS011;8790;53.590;10.002;2022-10-16T07:36:55;3.30;;;2.37;;
17345;SDS011;8790;53.590;10.002;2022-10-16T07:39:27;4.27;;;2.57;;
17345;SDS011;8790;53.590;10.002;2022-10-16T07:41:59;4.10;;;2.80;;
17345;SDS011;8790;53.590;10.002;2022-10-16T07:44:31;5.43;;;2.70;;
17345;SDS011;8790;53.590;10.002;2022-10-16T07:47:02;3.97;;;2.50;;
17345;SDS011;8790;53.590;10.002;2022-10-16T07:49:34;4.33;;;2.70;;
17345;SDS011;8790;53.590;10.002;2022-10-16T07:52:07;5.30;;;3.03;;
17345;SDS011;8790;53.590;10.002;2022-10-16T07:54:39;3.50;;;2.60;;
17345;SDS011;8790;53.590;10.002;2022-10-16T07:57:11;4.67;;;2.70;;
17345;SDS011;8790;53.590;10.002;2022-10-16T07:59:48;3.90;;;2.67;;
17345;SDS011;8790;53.590;10.002;2022-10-16T08:02:20;5.13;;;2.73;;
17345;SDS011;8790;53.590;10.002;2022-10-16T08:04:52;4.17;;;2.77;;
17345;SDS011;8790;53.590;10.002;2022-10-16T08:07:25;6.00;;;2.97;;
17345;SDS011;8790;53.590;10.002;2022-10-16T08:09:57;4.60;;;3.00;;
17345;SDS011;8790;53.590;10.002;2022-10-16T08:12:29;4.17;;;2.83;;
17345;SDS011;8790;53.590;10.002;2022-10-16T08:15:01;3.47;;;2.67;;
17345;SDS011;8790;53.590;10.002;2022-10-16T08:17:33;3.97;;;2.50;;
17345;SDS011;8790;53.590;10.002;2022-10-16T08:20:05;2.93;;;2.63;;
17345;SDS011;8790;53.590;10.002;2022-10-16T08:22:39;4.57;;;3.40;;
17345;SDS011;8790;53.590;10.002;2022-10-16T08:25:11;5.17;;;2.90;;
17345;SDS011;8790;53.590;10.002;2022-10-16T08:27:43;4.40;;;3.00;;
17345;SDS011;8790;53.590;10.002;2022-10-16T08:30:15;5.03;;;2.80;;
17345;SDS011;8790;53.590;10.002;2022-10-16T08:32:48;4.53;;;2.97;;
17345;SDS011;8790;53.590;10.002;2022-10-16T08:35:20;3.27;;;2.93;;
17345;SDS011;8790;53.590;10.002;2022-10-16T08:37:53;4.27;;;3.20;;
17345;SDS011;8790;53.590;10.002;2022-10-16T08:40:26;4.43;;;3.20;;
17345;SDS011;8790;53.590;10.002;2022-10-16T08:43:08;5.73;;;2.60;;
17345;SDS011;8790;53.590;10.002;2022-10-16T08:48:54;4.20;;;3.00;;
17345;SDS011;8790;53.590;10.002;2022-10-16T08:51:29;4.67;;;3.07;;
17345;SDS011;8790;53.590;10.002;2022-10-16T08:54:05;6.57;;;3.00;;
17345;SDS011;8790;53.590;10.002;2022-10-16T08:56:54;4.07;;;2.97;;
17345;SDS011;8790;53.590;10.002;2022-10-16T08:59:26;4.37;;;2.90;;
17345;SDS011;8790;53.590;10.002;2022-10-16T09:01:58;4.90;;;3.10;;
17345;SDS011;8790;53.590;10.002;2022-10-16T09:04:42;3.50;;;2.70;;
17345;SDS011;8790;53.590;10.002;2022-10-16T09:07:26;3.10;;;2.40;;
17345;SDS011;8790;53.590;10.002;2022-10-16T09:10:15;6.10;;;2.70;;
17345;SDS011;8790;53.590;10.002;2022-10-16T09:12:56;4.17;;;2.33;;
17345;SDS011;8790;53.590;10.002;2022-10-16T09:15:34;3.40;;;2.40;;
17345;SDS011;8790;53.590;10.002;2022-10-16T09:18:12;3.33;;;2.27;;
17345;SDS011;8790;53.590;10.002;2022-10-16T09:20:51;3.53;;;2.03;;
17345;SDS011;8790;53.590;10.002;2022-10-16T09:23:29;3.33;;;2.10;;
17345;SDS011;8790;53.590;10.002;2022-10-16T09:26:09;2.80;;;2.03;;
17345;SDS011;8790;53.590;10.002;2022-10-16T09:28:43;5.43;;;2.00;;
17345;SDS011;8790;53.590;10.002;2022-10-16T09:31:16;4.20;;;2.07;;
17345;SDS011;8790;53.590;10.002;2022-10-16T09:33:52;3.37;;;1.97;;
17345;SDS011;8790;53.590;10.002;2022-10-16T09:36:27;3.70;;;1.80;;
17345;SDS011;8790;53.590;10.002;2022-10-16T09:39:03;2.47;;;1.60;;
17345;SDS011;8790;53.590;10.002;2022-10-16T09:41:41;5.03;;;1.70;;
17345;SDS011;8790;53.590;10.002;2022-10-16T09:44:17;4.10;;;1.60;;
17345;SDS011;8790;53.590;10.002;2022-10-16T09:47:00;2.80;;;1.57;;
17345;SDS011;8790;53.590;10.002;2022-10-16T09:49:33;2.07;;;1.40;;
17345;SDS011;8790;53.590;10.002;2022-10-16T09:52:05;2.03;;;1.40;;
17345;SDS011;8790;53.590;10.002;2022-10-16T09:54:48;4.13;;;1.40;;
17345;SDS011;8790;53.590;10.002;2022-10-16T09:57:22;3.77;;;1.50;;
17345;SDS011;8790;53.590;10.002;2022-10-16T09:59:56;3.70;;;1.47;;
17345;SDS011;8790;53.590;10.002;2022-10-16T10:02:29;3.57;;;1.60;;
17345;SDS011;8790;53.590;10.002;2022-10-16T10:05:05;3.27;;;1.77;;
17345;SDS011;8790;53.590;10.002;2022-10-16T10:07:53;4.53;;;1.63;;
17345;SDS011;8790;53.590;10.002;2022-10-16T10:10:27;3.63;;;1.80;;
17345;SDS011;8790;53.590;10.002;2022-10-16T10:13:02;2.20;;;1.70;;
17345;SDS011;8790;53.590;10.002;2022-10-16T10:15:34;4.37;;;2.07;;
17345;SDS011;8790;53.590;10.002;2022-10-16T10:18:16;3.93;;;1.70;;
17345;SDS011;8790;53.590;10.002;2022-10-16T10:20:57;3.60;;;1.80;;
17345;SDS011;8790;53.590;10.002;2022-10-16T10:23:30;4.27;;;1.60;;
17345;SDS011;8790;53.590;10.002;2022-10-16T10:26:02;2.20;;;1.57;;
17345;SDS011;8790;53.590;10.002;2022-10-16T10:28:49;2.87;;;1.80;;
17345;SDS011;8790;53.590;10.002;2022-10-16T10:31:27;2.77;;;1.60;;
17345;SDS011;8790;53.590;10.002;2022-10-16T10:34:05;3.97;;;1.60;;
17345;SDS011;8790;53.590;10.002;2022-10-16T10:36:56;4.37;;;1.33;;
17345;SDS011;8790;53.590;10.002;2022-10-16T10:39:35;3.80;;;1.47;;
17345;SDS011;8790;53.590;10.002;2022-10-16T10:42:17;3.57;;;1.50;;
17345;SDS011;8790;53.590;10.002;2022-10-16T10:45:11;2.83;;;1.40;;
17345;SDS011;8790;53.590;10.002;2022-10-16T10:50:56;4.93;;;1.50;;
17345;SDS011;8790;53.590;10.002;2022-10-16T10:53:36;3.83;;;1.30;;
17345;SDS011;8790;53.590;10.002;2022-10-16T10:56:16;3.23;;;1.13;;
17345;SDS011;8790;53.590;10.002;2022-10-16T11:01:58;3.73;;;1.30;;
17345;SDS011;8790;53.590;10.002;2022-10-16T11:04:45;7.27;;;1.30;;
17345;SDS011;8790;53.590;10.002;2022-10-16T11:07:32;2.50;;;1.20;;
17345;SDS011;8790;53.590;10.002;2022-10-16T11:10:12;2.30;;;1.10;;
17345;SDS011;8790;53.590;10.002;2022-10-16T11:12:48;4.57;;;1.50;;
17345;SDS011;8790;53.590;10.002;2022-10-16T11:15:25;3.17;;;1.17;;
17345;SDS011;8790;53.590;10.002;2022-10-16T11:18:03;5.83;;;1.30;;
17345;SDS011;8790;53.590;10.002;2022-10-16T11:20:38;1.87;;;1.00;;
17345;SDS011;8790;53.590;10.002;2022-10-16T11:23:14;3.30;;;1.17;;
17345;SDS011;8790;53.590;10.002;2022-10-16T11:25:49;4.23;;;1.20;;
17345;SDS011;8790;53.590;10.002;2022-10-16T11:28:23;2.30;;;0.80;;
17345;SDS011;8790;53.590;10.002;2022-10-16T11:31:00;3.83;;;0.77;;
17345;SDS011;8790;53.590;10.002;2022-10-16T11:33:41;2.10;;;0.87;;
17345;SDS011;8790;53.590;10.002;2022-10-16T11:36:17;3.87;;;1.20;;
17345;SDS011;8790;53.590;10.002;2022-10-16T11:38:55;1.00;;;0.60;;
17345;SDS011;8790;53.590;10.002;2022-10-16T11:41:32;2.13;;;1.00;;
17345;SDS011;8790;53.590;10.002;2022-10-16T11:44:11;3.37;;;0.80;;
17345;SDS011;8790;53.590;10.002;2022-10-16T11:46:52;2.57;;;0.83;;
17345;SDS011;8790;53.590;10.002;2022-10-16T11:49:34;3.10;;;1.00;;
17345;SDS011;8790;53.590;10.002;2022-10-16T11:52:11;3.83;;;1.10;;
17345;SDS011;8790;53.590;10.002;2022-10-16T11:54:47;3.50;;;0.80;;
17345;SDS011;8790;53.590;10.002;2022-10-16T11:57:23;3.23;;;0.90;;
17345;SDS011;8790;53.590;10.002;2022-10-16T11:59:57;2.07;;;0.80;;
17345;SDS011;8790;53.590;10.002;2022-10-16T12:02:46;2.57;;;0.83;;
17345;SDS011;8790;53.590;10.002;2022-10-16T12:05:27;2.13;;;0.90;;
17345;SDS011;8790;53.590;10.002;2022-10-16T12:08:06;4.23;;;0.90;;
17345;SDS011;8790;53.590;10.002;2022-10-16T12:10:42;2.20;;;1.20;;
17345;SDS011;8790;53.590;10.002;2022-10-16T12:13:28;4.53;;;1.30;;
17345;SDS011;8790;53.590;10.002;2022-10-16T12:16:05;2.90;;;1.00;;
17345;SDS011;8790;53.590;10.002;2022-10-16T12:18:50;3.53;;;1.15;;
17345;SDS011;8790;53.590;10.002;2022-10-16T12:21:42;3.97;;;1.20;;
17345;SDS011;8790;53.590;10.002;2022-10-16T12:24:31;3.07;;;1.27;;
17345;SDS011;8790;53.590;10.002;2022-10-16T12:27:05;2.40;;;1.20;;
17345;SDS011;8790;53.590;10.002;2022-10-16T12:29:54;2.60;;;1.27;;
17345;SDS011;8790;53.590;10.002;2022-10-16T12:32:28;5.17;;;1.23;;
17345;SDS011;8790;53.590;10.002;2022-10-16T12:35:03;3.33;;;1.10;;
17345;SDS011;8790;53.590;10.002;2022-10-16T12:37:39;3.77;;;1.20;;
17345;SDS011;8790;53.590;10.002;2022-10-16T12:40:11;3.83;;;1.40;;
17345;SDS011;8790;53.590;10.002;2022-10-16T12:42:46;2.97;;;1.40;;
17345;SDS011;8790;53.590;10.002;2022-10-16T12:45:29;3.88;;;1.10;;
17345;SDS011;8790;53.590;10.002;2022-10-16T12:48:04;3.23;;;1.10;;
17345;SDS011;8790;53.590;10.002;2022-10-16T12:50:50;3.13;;;1.07;;
17345;SDS011;8790;53.590;10.002;2022-10-16T12:53:24;1.70;;;1.10;;
17345;SDS011;8790;53.590;10.002;2022-10-16T12:56:01;4.10;;;1.17;;
17345;SDS011;8790;53.590;10.002;2022-10-16T12:58:47;3.60;;;1.20;;
17345;SDS011;8790;53.590;10.002;2022-10-16T13:01:35;5.23;;;1.27;;
17345;SDS011;8790;53.590;10.002;2022-10-16T13:04:24;4.27;;;1.30;;
17345;SDS011;8790;53.590;10.002;2022-10-16T13:07:12;3.80;;;1.10;;
17345;SDS011;8790;53.590;10.002;2022-10-16T13:09:58;4.17;;;1.13;;
17345;SDS011;8790;53.590;10.002;2022-10-16T13:12:41;3.30;;;1.10;;
17345;SDS011;8790;53.590;10.002;2022-10-16T13:15:40;2.77;;;1.10;;
17345;SDS011;8790;53.590;10.002;2022-10-16T13:18:27;5.63;;;1.10;;
17345;SDS011;8790;53.590;10.002;2022-10-16T13:21:07;5.03;;;1.70;;
17345;SDS011;8790;53.590;10.002;2022-10-16T13:23:50;2.33;;;1.10;;
17345;SDS011;8790;53.590;10.002;2022-10-16T13:26:31;6.10;;;1.53;;
17345;SDS011;8790;53.590;10.002;2022-10-16T13:29:12;2.43;;;1.00;;
17345;SDS011;8790;53.590;10.002;2022-10-16T13:31:44;5.13;;;1.20;;
17345;SDS011;8790;53.590;10.002;2022-10-16T13:34:17;3.87;;;1.17;;
17345;SDS011;8790;53.590;10.002;2022-10-16T13:36:52;1.93;;;0.90;;
17345;SDS011;8790;53.590;10.002;2022-10-16T13:39:25;3.10;;;1.10;;
17345;SDS011;8790;53.590;10.002;2022-10-16T13:42:02;3.27;;;1.00;;
17345;SDS011;8790;53.590;10.002;2022-10-16T13:44:36;3.80;;;1.10;;
17345;SDS011;8790;53.590;10.002;2022-10-16T13:47:15;5.57;;;1.30;;
17345;SDS011;8790;53.590;10.002;2022-10-16T13:49:58;3.13;;;1.10;;
17345;SDS011;8790;53.590;10.002;2022-10-16T13:52:31;5.33;;;1.43;;
17345;SDS011;8790;53.590;10.002;2022-10-16T13:55:04;5.60;;;1.00;;
17345;SDS011;8790;53.590;10.002;2022-10-16T13:57:42;3.73;;;1.30;;
17345;SDS011;8790;53.590;10.002;2022-10-16T14:00:18;3.57;;;0.90;;
17345;SDS011;8790;53.590;10.002;2022-10-16T14:03:00;3.23;;;1.20;;
17345;SDS011;8790;53.590;10.002;2022-10-16T14:05:34;2.80;;;0.97;;
17345;SDS011;8790;53.590;10.002;2022-10-16T14:08:09;3.33;;;1.00;;
17345;SDS011;8790;53.590;10.002;2022-10-16T14:10:46;2.13;;;1.00;;
17345;SDS011;8790;53.590;10.002;2022-10-16T14:13:22;3.40;;;1.00;;
17345;SDS011;8790;53.590;10.002;2022-10-16T14:16:02;3.07;;;1.17;;
17345;SDS011;8790;53.590;10.002;2022-10-16T14:18:38;2.93;;;1.20;;
17345;SDS011;8790;53.590;10.002;2022-10-16T14:21:11;2.83;;;1.50;;
17345;SDS011;8790;53.590;10.002;2022-10-16T14:23:44;3.53;;;1.60;;
17345;SDS011;8790;53.590;10.002;2022-10-16T14:26:17;3.63;;;1.20;;
17345;SDS011;8790;53.590;10.002;2022-10-16T14:29:03;4.43;;;1.13;;
17345;SDS011;8790;53.590;10.002;2022-10-16T14:31:42;4.73;;;1.50;;
17345;SDS011;8790;53.590;10.002;2022-10-16T14:34:25;4.27;;;1.37;;
17345;SDS011;8790;53.590;10.002;2022-10-16T14:37:01;4.73;;;1.10;;
17345;SDS011;8790;53.590;10.002;2022-10-16T14:39:38;4.37;;;1.30;;
17345;SDS011;8790;53.590;10.002;2022-10-16T14:42:11;2.33;;;0.97;;
17345;SDS011;8790;53.590;10.002;2022-10-16T14:44:48;3.07;;;1.10;;
17345;SDS011;8790;53.590;10.002;2022-10-16T14:47:23;3.50;;;1.00;;
17345;SDS011;8790;53.590;10.002;2022-10-16T14:49:57;2.90;;;1.10;;
17345;SDS011;8790;53.590;10.002;2022-10-16T14:52:29;3.63;;;1.10;;
17345;SDS011;8790;53.590;10.002;2022-10-16T14:55:01;4.43;;;2.10;;
17345;SDS011;8790;53.590;10.002;2022-10-16T14:57:33;5.33;;;2.43;;
17345;SDS011;8790;53.590;10.002;2022-10-16T15:00:12;2.80;;;1.50;;
17345;SDS011;8790;53.590;10.002;2022-10-16T15:02:50;3.33;;;1.27;;
17345;SDS011;8790;53.590;10.002;2022-10-16T15:05:23;3.37;;;1.20;;
17345;SDS011;8790;53.590;10.002;2022-10-16T15:07:57;5.50;;;1.10;;
17345;SDS011;8790;53.590;10.002;2022-10-16T15:10:28;3.60;;;1.00;;
17345;SDS011;8790;53.590;10.002;2022-10-16T15:13:02;3.03;;;1.10;;
17345;SDS011;8790;53.590;10.002;2022-10-16T15:15:37;4.70;;;1.00;;
17345;SDS011;8790;53.590;10.002;2022-10-16T15:18:11;3.60;;;1.13;;
17345;SDS011;8790;53.590;10.002;2022-10-16T15:20:45;4.63;;;1.10;;
17345;SDS011;8790;53.590;10.002;2022-10-16T15:23:18;3.43;;;0.90;;
17345;SDS011;8790;53.590;10.002;2022-10-16T15:25:52;2.50;;;1.10;;
17345;SDS011;8790;53.590;10.002;2022-10-16T15:28:25;3.13;;;1.30;;
17345;SDS011;8790;53.590;10.002;2022-10-16T15:30:59;5.90;;;1.70;;
17345;SDS011;8790;53.590;10.002;2022-10-16T15:33:31;3.63;;;1.30;;
17345;SDS011;8790;53.590;10.002;2022-10-16T15:36:05;3.77;;;1.57;;
17345;SDS011;8790;53.590;10.002;2022-10-16T15:38:38;3.07;;;1.30;;
17345;SDS011;8790;53.590;10.002;2022-10-16T15:41:12;4.23;;;1.30;;
17345;SDS011;8790;53.590;10.002;2022-10-16T15:43:45;5.00;;;1.80;;
17345;SDS011;8790;53.590;10.002;2022-10-16T15:46:23;4.30;;;1.40;;